createdAt,value
2019-02-19T00:00:50.002Z,27.20
2019-02-19T00:01:49.996Z,25.70
2019-02-19T00:02:49.988Z,26.00
2019-02-19T00:03:49.989Z,26.60
2019-02-19T00:04:49.968Z,27.60
2019-02-19T00:05:49.950Z,26.20
2019-02-19T00:06:49.940Z,26.50
2019-02-19T00:07:49.934Z,25.80
2019-02-19T00:08:49.963Z,25.90
2019-02-19T00:09:49.913Z,26.20
2019-02-19T00:10:49.898Z,26.30
2019-02-19T00:11:49.887Z,25.70
2019-02-19T00:12:49.875Z,26.20
2019-02-19T00:13:49.883Z,26.30
2019-02-19T00:14:49.862Z,24.70
2019-02-19T00:15:49.847Z,26.00
2019-02-19T00:16:49.834Z,24.60
2019-02-19T00:17:49.831Z,25.50
2019-02-19T00:18:49.818Z,26.20
2019-02-19T00:19:49.815Z,25.50
2019-02-19T00:20:49.821Z,25.80
2019-02-19T00:21:49.782Z,25.20
2019-02-19T00:22:49.769Z,27.00
2019-02-19T00:23:49.768Z,27.30
2019-02-19T00:24:49.774Z,25.60
2019-02-19T00:25:49.745Z,25.30
2019-02-19T00:26:49.769Z,24.50
2019-02-19T00:27:49.729Z,25.90
2019-02-19T00:28:49.711Z,25.90
2019-02-19T00:29:49.702Z,25.40
2019-02-19T00:30:49.685Z,25.90
2019-02-19T00:31:49.681Z,26.30
2019-02-19T00:32:49.674Z,26.30
2019-02-19T00:33:49.659Z,25.90
2019-02-19T00:34:49.646Z,25.20
2019-02-19T00:35:49.632Z,24.80
2019-02-19T00:36:49.635Z,25.20
2019-02-19T00:37:49.625Z,26.30
2019-02-19T00:38:49.599Z,24.10
2019-02-19T00:39:49.599Z,24.60
2019-02-19T00:40:49.578Z,25.50
2019-02-19T00:41:49.569Z,24.20
2019-02-19T00:42:49.590Z,25.00
2019-02-19T00:43:49.546Z,24.00
2019-02-19T00:44:49.580Z,24.20
2019-02-19T00:45:49.525Z,24.90
2019-02-19T00:46:49.524Z,23.90
2019-02-19T00:47:49.510Z,24.20
2019-02-19T00:48:49.503Z,24.40
2019-02-19T00:49:49.487Z,23.70
2019-02-19T00:50:49.476Z,24.50
2019-02-19T00:51:49.464Z,24.10
2019-02-19T00:52:49.459Z,24.30
2019-02-19T00:53:49.444Z,24.60
2019-02-19T00:54:49.430Z,23.90
2019-02-19T00:55:49.421Z,24.70
2019-02-19T00:56:49.407Z,24.80
2019-02-19T00:57:49.434Z,25.00
2019-02-19T00:58:49.386Z,23.60
2019-02-19T00:59:49.408Z,23.70
2019-02-19T01:00:49.368Z,24.20
2019-02-19T01:01:49.359Z,24.60
2019-02-19T01:02:49.346Z,24.00
2019-02-19T01:03:49.341Z,23.60
2019-02-19T01:04:49.383Z,24.80
2019-02-19T01:05:49.312Z,24.30
2019-02-19T01:06:49.306Z,24.80
2019-02-19T01:07:49.295Z,24.00
2019-02-19T01:08:49.288Z,23.90
2019-02-19T01:09:49.275Z,24.70
2019-02-19T01:10:49.276Z,24.30
2019-02-19T01:11:49.255Z,24.10
2019-02-19T01:12:49.251Z,23.50
2019-02-19T01:13:49.232Z,23.80
2019-02-19T01:14:49.269Z,23.50
2019-02-19T01:15:49.206Z,23.20
2019-02-19T01:16:49.193Z,24.40
2019-02-19T01:17:49.219Z,23.40
2019-02-19T01:18:49.168Z,24.00
2019-02-19T01:19:49.159Z,23.60
2019-02-19T01:20:49.167Z,23.80
2019-02-19T01:21:49.134Z,23.50
2019-02-19T01:22:49.120Z,23.60
2019-02-19T01:23:49.109Z,23.10
2019-02-19T01:24:49.099Z,25.00
2019-02-19T01:25:49.124Z,23.80
2019-02-19T01:26:49.079Z,24.40
2019-02-19T01:27:49.071Z,24.40
2019-02-19T01:28:49.062Z,22.70
2019-02-19T01:29:49.052Z,23.00
2019-02-19T01:30:49.073Z,23.70
2019-02-19T01:31:49.026Z,24.50
2019-02-19T01:32:49.018Z,23.30
2019-02-19T01:33:49.003Z,23.70
2019-02-19T01:34:48.997Z,24.00
2019-02-19T01:35:48.997Z,23.80
2019-02-19T01:36:48.983Z,23.30
2019-02-19T01:37:48.965Z,23.80
2019-02-19T01:38:48.953Z,22.40
2019-02-19T01:39:48.939Z,22.20
2019-02-19T01:40:48.934Z,23.30
2019-02-19T01:41:48.942Z,23.80
2019-02-19T01:42:48.907Z,23.00
2019-02-19T01:43:48.905Z,22.60
2019-02-19T01:44:48.898Z,23.20
2019-02-19T01:45:48.875Z,22.20
2019-02-19T01:46:48.873Z,22.10
2019-02-19T01:47:48.859Z,22.80
2019-02-19T01:48:48.844Z,22.10
2019-02-19T01:49:48.835Z,22.20
2019-02-19T01:50:48.820Z,21.30
2019-02-19T01:51:48.848Z,21.60
2019-02-19T01:52:48.801Z,21.50
2019-02-19T01:53:48.794Z,21.40
2019-02-19T01:54:48.787Z,21.60
2019-02-19T01:55:48.772Z,21.40
2019-02-19T01:56:48.764Z,22.70
2019-02-19T01:57:48.761Z,21.40
2019-02-19T01:58:48.756Z,22.10
2019-02-19T01:59:48.750Z,22.20
2019-02-19T02:00:48.719Z,20.80
2019-02-19T02:01:48.704Z,21.10
2019-02-19T02:02:48.731Z,21.10
2019-02-19T02:03:48.684Z,20.70
2019-02-19T02:04:48.676Z,21.10
2019-02-19T02:05:48.659Z,21.60
2019-02-19T02:06:48.656Z,21.30
2019-02-19T02:07:48.644Z,21.30
2019-02-19T02:08:48.729Z,20.80
2019-02-19T02:09:48.614Z,20.20
2019-02-19T02:10:48.603Z,21.10
2019-02-19T02:11:48.614Z,21.20
2019-02-19T02:12:48.601Z,20.00
2019-02-19T02:13:48.577Z,20.40
2019-02-19T02:14:48.610Z,19.70
2019-02-19T02:15:48.548Z,19.50
2019-02-19T02:16:48.543Z,20.30
2019-02-19T02:17:48.527Z,20.10
2019-02-19T02:18:48.528Z,20.30
2019-02-19T02:19:48.510Z,19.00
2019-02-19T02:20:48.509Z,19.70
2019-02-19T02:21:48.485Z,19.50
2019-02-19T02:22:48.480Z,19.30
2019-02-19T02:23:48.473Z,20.70
2019-02-19T02:24:48.457Z,19.80
2019-02-19T02:25:48.450Z,20.40
2019-02-19T02:26:48.435Z,19.10
2019-02-19T02:27:48.423Z,19.20
2019-02-19T02:28:48.410Z,18.90
2019-02-19T02:29:48.400Z,19.70
2019-02-19T02:30:48.406Z,19.50
2019-02-19T02:31:48.374Z,19.90
2019-02-19T02:32:48.369Z,19.80
2019-02-19T02:33:48.357Z,19.50
2019-02-19T02:34:48.346Z,20.10
2019-02-19T02:35:48.354Z,20.60
2019-02-19T02:36:48.317Z,20.10
2019-02-19T02:37:48.311Z,19.80
2019-02-19T02:38:48.302Z,20.30
2019-02-19T02:39:48.285Z,19.70
2019-02-19T02:40:48.280Z,20.10
2019-02-19T02:41:48.285Z,20.20
2019-02-19T02:42:48.270Z,19.60
2019-02-19T02:43:48.249Z,19.40
2019-02-19T02:44:48.236Z,19.10
2019-02-19T02:45:53.421Z,19.50
2019-02-19T02:46:49.217Z,20.20
2019-02-19T02:47:48.215Z,18.90
2019-02-19T02:48:48.186Z,19.70
2019-02-19T02:49:48.181Z,19.90
2019-02-19T02:50:48.171Z,19.20
2019-02-19T02:51:48.170Z,20.60
2019-02-19T02:52:48.147Z,20.60
2019-02-19T02:53:48.130Z,19.20
2019-02-19T02:54:48.128Z,19.80
2019-02-19T02:55:48.112Z,19.80
2019-02-19T02:56:48.130Z,19.50
2019-02-19T02:57:48.115Z,19.80
2019-02-19T02:58:48.078Z,19.80
2019-02-19T02:59:48.063Z,19.80
2019-02-19T03:00:48.060Z,18.70
2019-02-19T03:01:48.063Z,19.10
2019-02-19T03:02:48.050Z,20.30
2019-02-19T03:03:48.019Z,19.70
2019-02-19T03:04:48.012Z,19.90
2019-02-19T03:05:47.997Z,19.80
2019-02-19T03:06:47.987Z,20.10
2019-02-19T03:07:48.002Z,19.60
2019-02-19T03:08:47.966Z,19.00
2019-02-19T03:09:47.971Z,19.10
2019-02-19T03:10:47.970Z,20.00
2019-02-19T03:11:47.952Z,19.00
2019-02-19T03:12:47.939Z,19.20
2019-02-19T03:13:47.923Z,18.70
2019-02-19T03:14:47.902Z,19.50
2019-02-19T03:15:47.896Z,18.10
2019-02-19T03:16:47.921Z,17.90
2019-02-19T03:17:47.880Z,18.90
2019-02-19T03:18:47.860Z,18.80
2019-02-19T03:19:47.858Z,17.80
2019-02-19T03:20:47.840Z,17.90
2019-02-19T03:21:47.836Z,19.50
2019-02-19T03:22:47.826Z,18.30
2019-02-19T03:23:47.815Z,18.40
2019-02-19T03:24:47.803Z,18.20
2019-02-19T03:25:47.805Z,19.00
2019-02-19T03:26:47.782Z,19.20
2019-02-19T03:27:47.803Z,18.90
2019-02-19T03:28:47.756Z,19.20
2019-02-19T03:29:47.748Z,18.70
2019-02-19T03:30:47.740Z,18.60
2019-02-19T03:31:47.734Z,16.70
2019-02-19T03:32:47.714Z,18.10
2019-02-19T03:33:47.733Z,17.20
2019-02-19T03:34:47.691Z,18.00
2019-02-19T03:35:47.679Z,18.00
2019-02-19T03:36:47.668Z,16.60
2019-02-19T03:37:47.658Z,17.70
2019-02-19T03:38:47.669Z,16.40
2019-02-19T03:39:47.651Z,18.10
2019-02-19T03:40:47.627Z,17.30
2019-02-19T03:41:47.623Z,18.30
2019-02-19T03:42:47.609Z,17.90
2019-02-19T03:43:47.598Z,17.20
2019-02-19T03:44:47.591Z,17.80
2019-02-19T03:45:47.570Z,17.10
2019-02-19T03:46:47.569Z,17.40
2019-02-19T03:47:47.548Z,18.50
2019-02-19T03:48:47.540Z,17.80
2019-02-19T03:49:47.546Z,18.10
2019-02-19T03:50:47.525Z,17.00
2019-02-19T03:51:47.504Z,17.30
2019-02-19T03:52:47.498Z,18.10
2019-02-19T03:53:47.487Z,18.00
2019-02-19T03:54:47.477Z,17.70
2019-02-19T03:55:47.470Z,16.70
2019-02-19T03:56:47.458Z,17.70
2019-02-19T03:57:47.442Z,17.50
2019-02-19T03:58:47.427Z,18.30
2019-02-19T03:59:47.424Z,17.90
2019-02-19T04:00:47.434Z,16.30
2019-02-19T04:01:47.399Z,17.80
2019-02-19T04:02:47.384Z,17.90
2019-02-19T04:03:47.372Z,18.20
2019-02-19T04:04:47.364Z,17.40
2019-02-19T04:05:47.352Z,18.20
2019-02-19T04:06:47.352Z,17.60
2019-02-19T04:07:47.339Z,15.80
2019-02-19T04:08:47.322Z,17.00
2019-02-19T04:09:47.316Z,18.70
2019-02-19T04:10:47.294Z,16.70
2019-02-19T04:11:47.299Z,17.80
2019-02-19T04:12:47.279Z,16.90
2019-02-19T04:13:47.262Z,16.20
2019-02-19T04:14:47.256Z,17.60
2019-02-19T04:15:47.238Z,17.50
2019-02-19T04:16:48.935Z,16.20
2019-02-19T04:17:47.249Z,17.10
2019-02-19T04:18:47.213Z,17.70
2019-02-19T04:19:47.201Z,18.00
2019-02-19T04:20:47.193Z,17.60
2019-02-19T04:21:47.173Z,17.30
2019-02-19T04:22:47.197Z,16.10
2019-02-19T04:23:47.150Z,15.50
2019-02-19T04:24:47.144Z,18.20
2019-02-19T04:25:47.129Z,18.00
2019-02-19T04:26:47.118Z,17.50
2019-02-19T04:27:47.122Z,16.20
2019-02-19T04:28:47.100Z,17.70
2019-02-19T04:29:47.084Z,17.60
2019-02-19T04:30:47.090Z,17.00
2019-02-19T04:31:47.068Z,16.70
2019-02-19T04:32:47.086Z,16.60
2019-02-19T04:33:47.041Z,15.90
2019-02-19T04:34:47.034Z,17.80
2019-02-19T04:35:47.025Z,17.80
2019-02-19T04:36:47.014Z,16.90
2019-02-19T04:37:47.008Z,17.40
2019-02-19T04:38:46.992Z,16.90
2019-02-19T04:39:46.978Z,18.00
2019-02-19T04:40:46.975Z,15.50
2019-02-19T04:41:46.956Z,18.00
2019-02-19T04:42:46.952Z,17.50
2019-02-19T04:43:46.946Z,16.00
2019-02-19T04:44:46.918Z,17.20
2019-02-19T04:45:46.918Z,14.10
2019-02-19T04:46:46.907Z,16.80
2019-02-19T04:47:46.885Z,17.20
2019-02-19T04:48:46.892Z,17.00
2019-02-19T04:49:46.863Z,17.70
2019-02-19T04:50:46.858Z,16.40
2019-02-19T04:51:46.845Z,16.50
2019-02-19T04:52:46.838Z,17.00
2019-02-19T04:53:46.831Z,17.70
2019-02-19T04:54:46.825Z,18.00
2019-02-19T04:55:46.801Z,15.30
2019-02-19T04:56:46.790Z,17.00
2019-02-19T04:57:46.791Z,16.80
2019-02-19T04:58:46.787Z,16.90
2019-02-19T04:59:46.754Z,16.50
2019-02-19T05:00:46.755Z,16.30
2019-02-19T05:01:46.735Z,17.50
2019-02-19T05:02:46.718Z,17.40
2019-02-19T05:03:46.717Z,17.20
2019-02-19T05:04:46.717Z,16.80
2019-02-19T05:05:46.700Z,16.50
2019-02-19T05:06:46.681Z,16.80
2019-02-19T05:07:46.667Z,15.60
2019-02-19T05:08:46.655Z,15.90
2019-02-19T05:09:46.652Z,17.30
2019-02-19T05:10:46.633Z,16.20
2019-02-19T05:11:46.625Z,17.00
2019-02-19T05:12:46.618Z,16.90
2019-02-19T05:13:46.600Z,16.30
2019-02-19T05:14:46.597Z,17.50
2019-02-19T05:15:46.580Z,16.60
2019-02-19T05:16:46.572Z,16.80
2019-02-19T05:17:46.557Z,17.40
2019-02-19T05:18:46.546Z,17.40
2019-02-19T05:19:46.542Z,17.60
2019-02-19T05:20:46.526Z,16.70
2019-02-19T05:21:46.530Z,16.70
2019-02-19T05:22:46.541Z,16.90
2019-02-19T05:23:46.496Z,14.70
2019-02-19T05:24:46.497Z,16.90
2019-02-19T05:25:46.471Z,17.50
2019-02-19T05:26:46.464Z,17.10
2019-02-19T05:27:46.453Z,17.80
2019-02-19T05:28:46.443Z,17.50
2019-02-19T05:29:46.432Z,17.30
2019-02-19T05:30:46.410Z,16.60
2019-02-19T05:31:46.401Z,15.90
2019-02-19T05:32:46.394Z,17.30
2019-02-19T05:33:46.391Z,16.30
2019-02-19T05:34:46.368Z,18.30
2019-02-19T05:35:46.378Z,15.70
2019-02-19T05:36:47.117Z,16.10
2019-02-19T05:37:46.335Z,17.50
2019-02-19T05:38:46.331Z,16.90
2019-02-19T05:39:46.332Z,17.20
2019-02-19T05:40:46.332Z,17.10
2019-02-19T05:41:46.298Z,16.70
2019-02-19T05:42:46.285Z,18.10
2019-02-19T05:43:46.280Z,17.50
2019-02-19T05:44:46.277Z,17.40
2019-02-19T05:45:46.257Z,15.90
2019-02-19T05:46:49.989Z,15.10
2019-02-19T05:47:46.226Z,17.60
2019-02-19T05:48:46.219Z,17.40
2019-02-19T05:49:46.210Z,17.80
2019-02-19T05:50:46.194Z,17.10
2019-02-19T05:51:46.189Z,16.70
2019-02-19T05:52:46.176Z,17.40
2019-02-19T05:53:46.158Z,16.60
2019-02-19T05:54:46.153Z,15.80
2019-02-19T05:55:46.139Z,17.60
2019-02-19T05:56:46.131Z,15.10
2019-02-19T05:57:46.126Z,17.10
2019-02-19T05:58:46.107Z,17.20
2019-02-19T05:59:46.097Z,15.40
2019-02-19T06:00:46.093Z,17.20
2019-02-19T06:01:46.070Z,16.40
2019-02-19T06:02:46.088Z,15.70
2019-02-19T06:03:46.052Z,15.90
2019-02-19T06:04:46.037Z,16.80
2019-02-19T06:05:46.082Z,16.90
2019-02-19T06:06:46.025Z,16.00
2019-02-19T06:07:46.005Z,16.00
2019-02-19T06:08:46.031Z,17.00
2019-02-19T06:09:45.987Z,17.00
2019-02-19T06:10:46.030Z,16.80
2019-02-19T06:11:45.967Z,16.90
2019-02-19T06:12:45.953Z,16.90
2019-02-19T06:13:45.945Z,16.30
2019-02-19T06:14:45.933Z,17.70
2019-02-19T06:15:45.926Z,18.10
2019-02-19T06:16:45.912Z,17.40
2019-02-19T06:17:45.902Z,18.10
2019-02-19T06:18:45.911Z,17.70
2019-02-19T06:19:45.880Z,16.80
2019-02-19T06:20:45.872Z,17.50
2019-02-19T06:21:45.861Z,17.00
2019-02-19T06:22:45.848Z,17.10
2019-02-19T06:23:45.849Z,18.00
2019-02-19T06:24:45.821Z,17.70
2019-02-19T06:25:45.860Z,17.90
2019-02-19T06:26:45.806Z,17.00
2019-02-19T06:27:45.793Z,18.70
2019-02-19T06:28:45.787Z,17.10
2019-02-19T06:29:45.767Z,17.20
2019-02-19T06:30:45.761Z,17.70
2019-02-19T06:31:45.761Z,17.60
2019-02-19T06:32:45.739Z,17.60
2019-02-19T06:33:45.769Z,17.20
2019-02-19T06:34:45.714Z,17.40
2019-02-19T06:35:45.713Z,17.90
2019-02-19T06:36:46.334Z,16.60
2019-02-19T06:37:45.683Z,17.00
2019-02-19T06:38:45.674Z,16.90
2019-02-19T06:39:45.670Z,16.00
2019-02-19T06:40:45.656Z,17.40
2019-02-19T06:41:45.653Z,17.00
2019-02-19T06:42:45.625Z,17.00
2019-02-19T06:43:45.624Z,16.20
2019-02-19T06:44:45.608Z,15.90
2019-02-19T06:45:45.602Z,17.20
2019-02-19T06:46:45.610Z,15.40
2019-02-19T06:47:45.577Z,15.30
2019-02-19T06:48:45.560Z,16.20
2019-02-19T06:49:45.549Z,16.30
2019-02-19T06:50:45.542Z,16.00
2019-02-19T06:51:45.534Z,16.60
2019-02-19T06:52:45.528Z,16.50
2019-02-19T06:53:45.510Z,14.70
2019-02-19T06:54:45.505Z,17.20
2019-02-19T06:55:45.507Z,16.90
2019-02-19T06:56:45.489Z,16.90
2019-02-19T06:57:45.482Z,16.00
2019-02-19T06:58:45.451Z,16.60
2019-02-19T06:59:45.440Z,16.20
2019-02-19T07:00:45.434Z,16.10
2019-02-19T07:01:45.434Z,16.40
2019-02-19T07:02:45.415Z,16.20
2019-02-19T07:03:45.406Z,16.40
2019-02-19T07:04:45.392Z,16.80
2019-02-19T07:05:45.379Z,17.80
2019-02-19T07:06:45.443Z,17.00
2019-02-19T07:07:45.354Z,14.30
2019-02-19T07:08:45.346Z,17.30
2019-02-19T07:09:45.342Z,16.90
2019-02-19T07:10:45.324Z,16.50
2019-02-19T07:11:45.310Z,17.60
2019-02-19T07:12:45.341Z,17.30
2019-02-19T07:13:45.293Z,17.00
2019-02-19T07:14:45.279Z,17.20
2019-02-19T07:15:45.274Z,16.20
2019-02-19T07:16:45.263Z,16.80
2019-02-19T07:17:45.250Z,17.90
2019-02-19T07:18:45.255Z,15.90
2019-02-19T07:19:45.224Z,17.50
2019-02-19T07:20:45.211Z,17.00
2019-02-19T07:21:45.200Z,15.50
2019-02-19T07:22:45.189Z,16.60
2019-02-19T07:23:45.224Z,15.90
2019-02-19T07:24:45.173Z,16.80
2019-02-19T07:25:45.162Z,16.60
2019-02-19T07:26:45.194Z,14.30
2019-02-19T07:27:45.133Z,15.00
2019-02-19T07:28:45.129Z,17.00
2019-02-19T07:29:45.152Z,17.40
2019-02-19T07:30:45.115Z,17.50
2019-02-19T07:31:45.095Z,16.40
2019-02-19T07:32:45.089Z,15.40
2019-02-19T07:33:45.074Z,15.80
2019-02-19T07:34:45.063Z,16.50
2019-02-19T07:35:45.051Z,17.30
2019-02-19T07:36:45.400Z,15.60
2019-02-19T07:37:45.028Z,17.10
2019-02-19T07:38:45.016Z,16.70
2019-02-19T07:39:45.035Z,16.80
2019-02-19T07:40:44.998Z,16.10
2019-02-19T07:41:44.990Z,15.80
2019-02-19T07:42:45.007Z,16.10
2019-02-19T07:43:44.966Z,16.60
2019-02-19T07:44:44.950Z,17.40
2019-02-19T07:45:45.005Z,16.10
2019-02-19T07:46:44.934Z,17.40
2019-02-19T07:47:44.926Z,16.70
2019-02-19T07:48:44.912Z,17.30
2019-02-19T07:49:44.902Z,17.60
2019-02-19T07:50:44.903Z,17.00
2019-02-19T07:51:44.880Z,16.40
2019-02-19T07:52:44.865Z,16.10
2019-02-19T07:53:44.858Z,16.60
2019-02-19T07:54:44.845Z,17.10
2019-02-19T07:55:44.854Z,17.10
2019-02-19T07:56:44.824Z,16.60
2019-02-19T07:57:44.815Z,15.80
2019-02-19T07:58:44.804Z,17.30
2019-02-19T07:59:44.794Z,16.00
2019-02-19T08:00:44.789Z,16.60
2019-02-19T08:01:44.779Z,14.80
2019-02-19T08:02:44.762Z,16.80
2019-02-19T08:03:44.752Z,16.60
2019-02-19T08:04:44.735Z,16.80
2019-02-19T08:05:44.725Z,16.60
2019-02-19T08:06:44.727Z,17.90
2019-02-19T08:07:44.708Z,16.30
2019-02-19T08:08:44.720Z,16.40
2019-02-19T08:09:44.700Z,16.00
2019-02-19T08:10:44.677Z,16.70
2019-02-19T08:11:44.680Z,16.30
2019-02-19T08:12:44.655Z,16.00
2019-02-19T08:13:44.644Z,16.20
2019-02-19T08:14:44.641Z,16.40
2019-02-19T08:15:44.625Z,15.30
2019-02-19T08:16:44.641Z,16.10
2019-02-19T08:17:44.598Z,16.80
2019-02-19T08:18:44.613Z,15.80
2019-02-19T08:19:44.577Z,15.40
2019-02-19T08:20:44.565Z,16.70
2019-02-19T08:21:44.562Z,16.40
2019-02-19T08:22:44.574Z,16.70
2019-02-19T08:23:44.531Z,16.40
2019-02-19T08:24:44.524Z,16.60
2019-02-19T08:25:44.511Z,15.50
2019-02-19T08:26:44.508Z,16.10
2019-02-19T08:27:44.498Z,15.70
2019-02-19T08:28:44.489Z,16.50
2019-02-19T08:29:44.473Z,15.30
2019-02-19T08:30:44.457Z,16.60
2019-02-19T08:31:44.454Z,16.40
2019-02-19T08:32:44.434Z,16.00
2019-02-19T08:33:44.456Z,16.10
2019-02-19T08:34:44.421Z,16.30
2019-02-19T08:35:44.402Z,15.30
2019-02-19T08:36:44.395Z,17.10
2019-02-19T08:37:44.388Z,15.70
2019-02-19T08:38:44.373Z,15.80
2019-02-19T08:39:44.364Z,15.70
2019-02-19T08:40:44.352Z,15.30
2019-02-19T08:41:44.365Z,15.50
2019-02-19T08:42:44.329Z,14.90
2019-02-19T08:43:44.324Z,15.80
2019-02-19T08:44:44.306Z,15.60
2019-02-19T08:45:44.304Z,15.80
2019-02-19T08:46:44.280Z,15.80
2019-02-19T08:47:44.269Z,15.60
2019-02-19T08:48:44.410Z,14.40
2019-02-19T08:49:44.254Z,15.40
2019-02-19T08:50:44.265Z,16.00
2019-02-19T08:51:44.233Z,16.20
2019-02-19T08:52:44.213Z,16.00
2019-02-19T08:53:44.223Z,14.90
2019-02-19T08:54:44.237Z,15.30
2019-02-19T08:55:44.193Z,15.40
2019-02-19T08:56:44.177Z,15.00
2019-02-19T08:57:44.163Z,15.40
2019-02-19T08:58:44.150Z,15.10
2019-02-19T08:59:44.143Z,14.90
2019-02-19T09:00:44.151Z,16.10
2019-02-19T09:01:44.118Z,16.10
2019-02-19T09:02:44.110Z,15.80
2019-02-19T09:03:44.095Z,16.70
2019-02-19T09:04:44.141Z,15.40
2019-02-19T09:05:44.076Z,16.00
2019-02-19T09:06:44.067Z,15.30
2019-02-19T09:07:44.068Z,16.10
2019-02-19T09:08:44.047Z,16.00
2019-02-19T09:09:44.027Z,15.00
2019-02-19T09:10:44.031Z,14.60
2019-02-19T09:11:44.031Z,16.70
2019-02-19T09:12:43.999Z,17.00
2019-02-19T09:13:43.991Z,15.80
2019-02-19T09:14:43.973Z,17.50
2019-02-19T09:15:44.001Z,15.30
2019-02-19T09:16:43.953Z,16.20
2019-02-19T09:17:51.731Z,16.00
2019-02-19T09:18:44.948Z,16.00
2019-02-19T09:19:43.924Z,16.80
2019-02-19T09:20:43.953Z,16.80
2019-02-19T09:21:43.896Z,13.00
2019-02-19T09:22:43.884Z,16.80
2019-02-19T09:23:43.885Z,16.10
2019-02-19T09:24:43.866Z,14.90
2019-02-19T09:25:43.869Z,16.70
2019-02-19T09:26:43.865Z,15.30
2019-02-19T09:27:43.845Z,16.10
2019-02-19T09:28:43.825Z,13.60
2019-02-19T09:29:43.829Z,16.30
2019-02-19T09:30:43.845Z,15.80
2019-02-19T09:31:43.786Z,16.90
2019-02-19T09:32:43.914Z,16.10
2019-02-19T09:33:43.766Z,16.30
2019-02-19T09:34:43.761Z,16.60
2019-02-19T09:35:43.751Z,15.40
2019-02-19T09:36:43.750Z,16.00
2019-02-19T09:37:43.742Z,16.60
2019-02-19T09:38:43.710Z,15.90
2019-02-19T09:39:43.701Z,16.40
2019-02-19T09:40:43.726Z,16.40
2019-02-19T09:41:43.679Z,16.00
2019-02-19T09:42:43.719Z,17.50
2019-02-19T09:43:43.683Z,17.00
2019-02-19T09:44:43.645Z,17.10
2019-02-19T09:45:43.640Z,16.80
2019-02-19T09:46:43.629Z,17.00
2019-02-19T09:47:43.618Z,17.70
2019-02-19T09:48:43.624Z,16.30
2019-02-19T09:49:43.597Z,17.80
2019-02-19T09:50:43.591Z,18.10
2019-02-19T09:51:43.575Z,18.20
2019-02-19T09:52:43.561Z,18.20
2019-02-19T09:53:43.568Z,17.70
2019-02-19T09:54:43.547Z,17.80
2019-02-19T09:55:43.919Z,17.80
2019-02-19T09:56:43.518Z,18.20
2019-02-19T09:57:43.513Z,18.50
2019-02-19T09:58:43.495Z,17.80
2019-02-19T09:59:43.538Z,18.10
2019-02-19T10:00:43.500Z,18.50
2019-02-19T10:01:43.465Z,17.90
2019-02-19T10:02:44.032Z,18.30
2019-02-19T10:03:43.444Z,19.60
2019-02-19T10:04:43.432Z,19.30
2019-02-19T10:05:43.555Z,20.00
2019-02-19T10:06:43.443Z,19.20
2019-02-19T10:07:43.399Z,18.80
2019-02-19T10:08:43.385Z,19.40
2019-02-19T10:09:43.378Z,20.20
2019-02-19T10:10:43.371Z,20.20
2019-02-19T10:11:43.361Z,19.30
2019-02-19T10:12:43.355Z,20.90
2019-02-19T10:13:43.328Z,20.90
2019-02-19T10:14:43.325Z,21.70
2019-02-19T10:15:43.309Z,21.40
2019-02-19T10:16:43.360Z,20.60
2019-02-19T10:17:43.334Z,21.70
2019-02-19T10:18:43.275Z,23.40
2019-02-19T10:19:43.267Z,22.40
2019-02-19T10:20:43.258Z,22.60
2019-02-19T10:21:43.244Z,23.40
2019-02-19T10:22:43.246Z,23.70
2019-02-19T10:23:43.231Z,23.10
2019-02-19T10:24:43.207Z,25.60
2019-02-19T10:25:44.647Z,24.00
2019-02-19T10:26:43.185Z,24.10
2019-02-19T10:27:43.190Z,28.00
2019-02-19T10:28:43.241Z,26.00
2019-02-19T10:29:43.167Z,26.00
2019-02-19T10:30:43.142Z,27.10
2019-02-19T10:31:43.130Z,25.30
2019-02-19T10:32:43.183Z,25.80
2019-02-19T10:33:43.115Z,25.10
2019-02-19T10:34:43.127Z,27.70
2019-02-19T10:35:43.093Z,27.50
2019-02-19T10:36:43.080Z,26.80
2019-02-19T10:37:43.069Z,27.20
2019-02-19T10:38:43.065Z,25.80
2019-02-19T10:39:43.045Z,26.70
2019-02-19T10:40:43.042Z,24.10
2019-02-19T10:41:43.043Z,27.60
2019-02-19T10:42:43.022Z,27.40
2019-02-19T10:43:43.009Z,26.90
2019-02-19T10:44:42.994Z,27.10
2019-02-19T10:45:42.979Z,25.50
2019-02-19T10:46:42.971Z,26.10
2019-02-19T10:47:42.967Z,26.60
2019-02-19T10:48:43.757Z,26.40
2019-02-19T10:49:42.937Z,26.00
2019-02-19T10:50:42.929Z,27.60
2019-02-19T10:51:42.914Z,26.80
2019-02-19T10:52:42.910Z,27.10
2019-02-19T10:53:42.932Z,26.10
2019-02-19T10:54:42.876Z,27.10
2019-02-19T10:55:42.871Z,27.90
2019-02-19T10:56:42.857Z,26.20
2019-02-19T10:57:42.844Z,26.10
2019-02-19T10:58:42.847Z,24.40
2019-02-19T10:59:42.864Z,24.20
2019-02-19T11:00:42.904Z,23.60
2019-02-19T11:01:42.923Z,25.10
2019-02-19T11:02:42.789Z,28.00
2019-02-19T11:03:42.782Z,27.70
2019-02-19T11:04:42.774Z,27.00
2019-02-19T11:05:42.793Z,29.10
2019-02-19T11:06:42.751Z,27.30
2019-02-19T11:07:42.742Z,28.80
2019-02-19T11:08:42.754Z,27.40
2019-02-19T11:09:42.716Z,27.10
2019-02-19T11:10:42.727Z,26.70
2019-02-19T11:11:42.697Z,26.60
2019-02-19T11:12:42.687Z,27.50
2019-02-19T11:13:42.677Z,23.70
2019-02-19T11:14:42.681Z,24.20
2019-02-19T11:15:42.665Z,27.00
2019-02-19T11:16:42.683Z,28.30
2019-02-19T11:17:42.815Z,27.30
2019-02-19T11:18:42.622Z,27.40
2019-02-19T11:19:42.604Z,26.20
2019-02-19T11:20:42.609Z,24.10
2019-02-19T11:21:42.584Z,26.80
2019-02-19T11:22:42.714Z,26.30
2019-02-19T11:23:42.568Z,26.70
2019-02-19T11:24:42.556Z,25.10
2019-02-19T11:25:42.551Z,26.90
2019-02-19T11:26:42.534Z,27.20
2019-02-19T11:27:42.525Z,25.90
2019-02-19T11:28:42.537Z,26.20
2019-02-19T11:29:42.501Z,26.60
2019-02-19T11:30:42.515Z,26.20
2019-02-19T11:31:42.481Z,22.20
2019-02-19T11:32:42.473Z,25.20
2019-02-19T11:33:42.482Z,25.90
2019-02-19T11:34:42.451Z,24.00
2019-02-19T11:35:42.435Z,21.60
2019-02-19T11:36:42.436Z,24.90
2019-02-19T11:37:42.417Z,24.20
2019-02-19T11:38:42.447Z,22.80
2019-02-19T11:39:42.395Z,24.20
2019-02-19T11:40:42.376Z,22.10
2019-02-19T11:41:42.364Z,23.00
2019-02-19T11:42:42.362Z,24.80
2019-02-19T11:43:42.350Z,23.50
2019-02-19T11:44:42.361Z,24.20
2019-02-19T11:45:42.337Z,23.70
2019-02-19T11:46:42.329Z,24.00
2019-02-19T11:47:42.330Z,25.20
2019-02-19T11:48:42.296Z,24.50
2019-02-19T11:49:42.296Z,20.60
2019-02-19T11:50:42.277Z,22.40
2019-02-19T11:51:42.290Z,21.60
2019-02-19T11:52:42.254Z,24.00
2019-02-19T11:53:42.237Z,23.80
2019-02-19T11:54:42.236Z,23.30
2019-02-19T11:55:42.217Z,23.40
2019-02-19T11:56:42.201Z,19.30
2019-02-19T11:57:42.194Z,23.50
2019-02-19T11:58:42.184Z,22.40
2019-02-19T11:59:42.270Z,21.80
2019-02-19T12:00:42.156Z,19.50
2019-02-19T12:01:42.153Z,20.30
2019-02-19T12:02:42.138Z,19.00
2019-02-19T12:03:42.129Z,20.30
2019-02-19T12:04:42.151Z,18.30
2019-02-19T12:05:42.158Z,18.90
2019-02-19T12:06:42.133Z,21.40
2019-02-19T12:07:42.086Z,18.00
2019-02-19T12:08:42.129Z,20.10
2019-02-19T12:09:42.077Z,21.10
2019-02-19T12:10:42.068Z,20.00
2019-02-19T12:11:42.041Z,21.70
2019-02-19T12:12:42.064Z,21.10
2019-02-19T12:13:42.024Z,18.50
2019-02-19T12:14:42.039Z,22.00
2019-02-19T12:15:42.147Z,20.60
2019-02-19T12:16:41.984Z,18.70
2019-02-19T12:17:41.974Z,21.20
2019-02-19T12:18:46.234Z,18.10
2019-02-19T12:19:41.958Z,19.60
2019-02-19T12:20:41.941Z,19.60
2019-02-19T12:21:41.961Z,19.50
2019-02-19T12:22:41.919Z,19.40
2019-02-19T12:23:41.907Z,20.30
2019-02-19T12:24:41.901Z,20.10
2019-02-19T12:25:41.885Z,20.60
2019-02-19T12:26:41.880Z,20.90
2019-02-19T12:27:41.892Z,21.30
2019-02-19T12:28:41.857Z,19.10
2019-02-19T12:29:41.848Z,20.10
2019-02-19T12:30:41.837Z,17.90
2019-02-19T12:31:41.825Z,20.90
2019-02-19T12:32:41.825Z,19.60
2019-02-19T12:33:41.807Z,20.90
2019-02-19T12:34:41.796Z,19.40
2019-02-19T12:35:41.782Z,21.40
2019-02-19T12:36:41.898Z,21.60
2019-02-19T12:37:41.760Z,20.20
2019-02-19T12:38:41.767Z,22.00
2019-02-19T12:39:41.738Z,20.10
2019-02-19T12:40:41.758Z,22.10
2019-02-19T12:41:41.721Z,20.50
2019-02-19T12:42:41.715Z,21.50
2019-02-19T12:43:41.692Z,20.10
2019-02-19T12:44:41.698Z,21.80
2019-02-19T12:45:41.695Z,21.20
2019-02-19T12:46:41.661Z,20.80
2019-02-19T12:47:41.722Z,21.70
2019-02-19T12:48:41.638Z,21.60
2019-02-19T12:49:41.627Z,18.80
2019-02-19T12:50:41.641Z,18.90
2019-02-19T12:51:41.599Z,21.10
2019-02-19T12:52:41.592Z,20.90